createdAt,value
2019-05-04T00:01:00.433Z,5.37
2019-05-04T00:03:31.031Z,5.67
2019-05-04T00:06:05.192Z,5.37
2019-05-04T00:08:35.803Z,5.43
2019-05-04T00:11:06.434Z,5.80
2019-05-04T00:13:36.851Z,4.77
2019-05-04T00:16:07.363Z,4.80
2019-05-04T00:18:37.828Z,5.20
2019-05-04T00:21:08.218Z,4.97
2019-05-04T00:23:38.659Z,4.63
2019-05-04T00:26:09.144Z,4.90
2019-05-04T00:28:39.601Z,5.40
2019-05-04T00:31:09.998Z,6.03
2019-05-04T00:33:54.536Z,5.90
2019-05-04T00:36:40.757Z,4.83
2019-05-04T00:39:15.702Z,5.20
2019-05-04T00:41:47.052Z,4.67
2019-05-04T00:44:17.566Z,4.27
2019-05-04T00:46:47.952Z,5.47
2019-05-04T00:49:18.387Z,5.13
2019-05-04T00:51:48.833Z,4.83
2019-05-04T00:54:19.367Z,4.20
2019-05-04T00:56:52.173Z,5.20
2019-05-04T00:59:27.942Z,5.00
2019-05-04T01:02:17.876Z,5.00
2019-05-04T01:04:48.280Z,5.47
2019-05-04T01:07:21.373Z,4.50
2019-05-04T01:09:50.869Z,4.30
2019-05-04T01:12:21.314Z,4.60
2019-05-04T01:14:51.731Z,4.87
2019-05-04T01:17:22.191Z,4.30
2019-05-04T01:19:52.650Z,4.77
2019-05-04T01:22:25.102Z,5.40
2019-05-04T01:24:55.433Z,4.70
2019-05-04T01:27:25.812Z,4.77
2019-05-04T01:29:56.247Z,4.60
2019-05-04T01:32:26.685Z,4.77
2019-05-04T01:35:06.395Z,4.97
2019-05-04T01:37:56.595Z,5.30
2019-05-04T01:40:35.873Z,5.03
2019-05-04T01:43:06.427Z,4.80
2019-05-04T01:45:37.117Z,4.60
2019-05-04T01:48:07.587Z,5.30
2019-05-04T01:50:38.046Z,5.10
2019-05-04T01:53:26.084Z,4.83
2019-05-04T01:56:10.826Z,5.33
2019-05-04T01:58:48.551Z,5.57
2019-05-04T02:01:19.479Z,5.40
2019-05-04T02:03:49.923Z,5.70
2019-05-04T02:06:20.347Z,4.70
2019-05-04T02:08:59.095Z,4.20
2019-05-04T02:11:29.749Z,4.90
2019-05-04T02:14:00.256Z,5.30
2019-05-04T02:16:30.706Z,4.90
2019-05-04T02:19:01.348Z,6.07
2019-05-04T02:21:35.339Z,6.97
2019-05-04T02:24:06.080Z,7.37
2019-05-04T02:26:45.017Z,7.13
2019-05-04T02:29:35.145Z,8.93
2019-05-04T02:32:09.890Z,7.60
2019-05-04T02:34:40.276Z,6.07
2019-05-04T02:37:10.775Z,7.17
2019-05-04T02:39:41.225Z,7.10
2019-05-04T02:42:12.082Z,8.00
2019-05-04T02:44:45.428Z,8.97
2019-05-04T02:47:38.088Z,7.33
2019-05-04T02:50:17.019Z,8.13
2019-05-04T02:52:47.588Z,8.20
2019-05-04T02:55:18.001Z,8.80
2019-05-04T02:57:48.403Z,8.47
2019-05-04T03:00:18.970Z,8.83
2019-05-04T03:02:49.483Z,8.70
2019-05-04T03:05:19.923Z,9.93
2019-05-04T03:07:50.362Z,9.63
2019-05-04T03:10:21.088Z,9.50
2019-05-04T03:12:51.485Z,9.90
2019-05-04T03:15:21.918Z,9.63
2019-05-04T03:18:05.370Z,10.57
2019-05-04T03:20:47.815Z,9.97
2019-05-04T03:23:19.738Z,11.53
2019-05-04T03:25:50.176Z,11.17
2019-05-04T03:28:20.587Z,12.33
2019-05-04T03:30:51.076Z,13.67
2019-05-04T03:33:21.468Z,13.40
2019-05-04T03:36:01.834Z,12.07
2019-05-04T03:38:27.589Z,12.17
2019-05-04T03:40:56.642Z,12.80
2019-05-04T03:43:27.299Z,12.47
2019-05-04T03:46:09.626Z,13.23
2019-05-04T03:49:01.537Z,14.17
2019-05-04T03:51:35.335Z,13.43
2019-05-04T03:54:06.174Z,13.13
2019-05-04T03:56:36.815Z,13.77
2019-05-04T03:59:07.266Z,14.30
2019-05-04T04:01:37.958Z,14.10
2019-05-04T04:04:08.351Z,14.93
2019-05-04T04:06:38.786Z,13.87
2019-05-04T04:09:14.711Z,14.20
2019-05-04T04:11:41.728Z,12.73
2019-05-04T04:14:12.137Z,8.83
2019-05-04T04:17:00.529Z,7.93
2019-05-04T04:19:32.071Z,7.83
2019-05-04T04:22:05.621Z,5.67
2019-05-04T04:24:35.819Z,4.40
2019-05-04T04:27:15.619Z,4.23
2019-05-04T04:29:46.740Z,3.10
2019-05-04T04:32:17.139Z,3.40
2019-05-04T04:34:47.535Z,2.67
2019-05-04T04:37:17.998Z,2.23
2019-05-04T04:39:48.419Z,2.00
2019-05-04T04:42:18.851Z,1.70
2019-05-04T04:44:49.232Z,1.70
2019-05-04T04:47:19.682Z,1.60
2019-05-04T04:49:50.243Z,1.43
2019-05-04T04:52:20.673Z,1.20
2019-05-04T04:54:51.328Z,1.40
2019-05-04T04:57:39.357Z,0.97
2019-05-04T05:00:34.753Z,0.83
2019-05-04T05:03:05.413Z,0.83
2019-05-04T05:05:46.196Z,0.87
2019-05-04T05:08:17.146Z,0.60
2019-05-04T05:10:47.561Z,0.67
2019-05-04T05:13:18.094Z,0.80
2019-05-04T05:15:48.478Z,0.67
2019-05-04T05:18:18.890Z,0.60
2019-05-04T05:21:17.233Z,0.60
2019-05-04T05:23:47.713Z,0.57
2019-05-04T05:26:18.107Z,0.50
2019-05-04T05:28:48.513Z,0.60
2019-05-04T05:31:56.013Z,0.57
2019-05-04T05:34:35.140Z,0.50
2019-05-04T05:37:05.216Z,0.60
2019-05-04T05:39:35.695Z,0.60
2019-05-04T05:42:06.098Z,0.60
2019-05-04T05:44:39.730Z,0.50
2019-05-04T05:47:36.778Z,0.60
2019-05-04T05:50:19.110Z,0.60
2019-05-04T05:53:10.155Z,0.50
2019-05-04T05:55:51.823Z,0.60
2019-05-04T05:58:44.569Z,0.60
2019-05-04T06:01:32.073Z,0.60
2019-05-04T06:04:30.641Z,0.60
2019-05-04T06:07:05.918Z,0.50
2019-05-04T06:09:36.311Z,0.57
2019-05-04T06:12:16.542Z,0.53
2019-05-04T06:14:54.669Z,0.50
2019-05-04T06:17:44.793Z,0.50
2019-05-04T06:20:31.778Z,0.50
2019-05-04T06:23:06.658Z,0.50
2019-05-04T06:26:08.108Z,0.50
2019-05-04T06:28:51.110Z,0.50
2019-05-04T06:31:41.077Z,0.90
2019-05-04T06:34:14.725Z,0.50
2019-05-04T06:36:55.119Z,0.57
2019-05-04T06:39:44.945Z,0.60
2019-05-04T06:42:20.636Z,0.60
2019-05-04T06:45:14.533Z,0.70
2019-05-04T06:47:51.971Z,0.60
2019-05-04T06:50:20.324Z,0.77
2019-05-04T06:53:11.206Z,0.50
2019-05-04T06:55:49.235Z,0.70
2019-05-04T06:58:25.144Z,0.80
2019-05-04T07:01:04.067Z,0.70
2019-05-04T07:03:35.253Z,0.67
2019-05-04T07:06:06.045Z,0.80
2019-05-04T07:08:40.294Z,0.80
2019-05-04T07:11:25.827Z,0.70
2019-05-04T07:13:41.857Z,0.70
2019-05-04T07:16:12.330Z,0.83
2019-05-04T07:18:44.494Z,0.73
2019-05-04T07:21:19.464Z,0.90
2019-05-04T07:23:49.795Z,0.90
2019-05-04T07:26:19.678Z,1.00
2019-05-04T07:28:51.768Z,0.60
2019-05-04T07:31:28.032Z,0.87
2019-05-04T07:34:03.951Z,0.70
2019-05-04T07:37:04.832Z,0.73
2019-05-04T07:39:42.724Z,1.00
2019-05-04T07:42:44.054Z,0.80
2019-05-04T07:45:14.592Z,0.97
2019-05-04T07:47:45.099Z,0.90
2019-05-04T07:50:17.075Z,0.73
2019-05-04T07:52:49.729Z,0.90
2019-05-04T07:55:19.741Z,0.70
2019-05-04T07:57:50.311Z,1.00
2019-05-04T08:00:20.865Z,0.83
2019-05-04T08:02:51.359Z,0.80
2019-05-04T08:05:27.260Z,0.90
2019-05-04T08:07:55.028Z,0.93
2019-05-04T08:10:30.138Z,0.80
2019-05-04T08:13:04.386Z,0.70
2019-05-04T08:15:37.230Z,1.13
2019-05-04T08:18:05.469Z,0.80
2019-05-04T08:20:35.524Z,0.80
2019-05-04T08:23:06.228Z,0.77
2019-05-04T08:25:41.136Z,0.90
2019-05-04T08:28:09.000Z,0.90
2019-05-04T08:30:40.107Z,0.80
2019-05-04T08:33:11.894Z,0.90
2019-05-04T08:35:44.323Z,1.10
2019-05-04T08:38:14.897Z,0.80
2019-05-04T08:40:45.496Z,1.00
2019-05-04T08:43:16.405Z,1.00
2019-05-04T08:45:55.418Z,0.90
2019-05-04T08:48:24.623Z,0.90
2019-05-04T08:51:15.368Z,1.10
2019-05-04T08:53:50.352Z,1.20
2019-05-04T08:56:39.932Z,0.70
2019-05-04T08:59:15.390Z,0.80
2019-05-04T09:01:58.566Z,0.80
2019-05-04T09:04:28.974Z,0.90
2019-05-04T09:07:07.016Z,1.03
2019-05-04T09:09:31.889Z,1.10
2019-05-04T09:12:17.977Z,1.07
2019-05-04T09:14:37.467Z,0.77
2019-05-04T09:17:09.860Z,0.83
2019-05-04T09:19:41.919Z,1.00
2019-05-04T09:22:20.509Z,1.00
2019-05-04T09:24:48.670Z,1.03
2019-05-04T09:27:20.180Z,0.80
2019-05-04T09:29:50.973Z,0.87
2019-05-04T09:32:30.885Z,1.17
2019-05-04T09:34:54.839Z,1.10
2019-05-04T09:37:25.451Z,1.07
2019-05-04T09:40:03.062Z,1.00
2019-05-04T09:42:50.654Z,1.10
2019-05-04T09:45:19.555Z,1.30
2019-05-04T09:47:51.418Z,1.43
2019-05-04T09:50:21.817Z,1.00
2019-05-04T09:53:14.330Z,1.00
2019-05-04T09:55:31.177Z,2.47
2019-05-04T09:58:29.922Z,1.00
2019-05-04T10:00:56.297Z,1.23
2019-05-04T10:03:26.805Z,0.97
2019-05-04T10:05:57.782Z,1.30
2019-05-04T10:08:28.220Z,1.30
2019-05-04T10:11:05.119Z,1.80
2019-05-04T10:13:56.469Z,1.10
2019-05-04T10:16:51.724Z,1.73
2019-05-04T10:19:24.481Z,1.40
2019-05-04T10:21:56.139Z,1.20
2019-05-04T10:24:29.251Z,1.53
2019-05-04T10:27:04.499Z,1.73
2019-05-04T10:29:35.219Z,2.67
2019-05-04T10:32:05.990Z,2.23
2019-05-04T10:34:36.490Z,2.37
2019-05-04T10:37:07.169Z,2.00
2019-05-04T10:39:37.639Z,2.13
2019-05-04T10:42:08.293Z,1.77
2019-05-04T10:44:38.747Z,2.23
2019-05-04T10:47:09.319Z,2.03
2019-05-04T10:49:39.760Z,2.03
2019-05-04T10:52:10.162Z,2.30
2019-05-04T10:54:40.600Z,2.30
2019-05-04T10:57:11.030Z,2.17
2019-05-04T10:59:41.450Z,1.83
2019-05-04T11:02:11.936Z,2.53
2019-05-04T11:04:44.685Z,2.50
2019-05-04T11:07:14.578Z,2.57
2019-05-04T11:09:44.989Z,2.60
2019-05-04T11:12:15.572Z,3.33
2019-05-04T11:14:46.058Z,2.77
2019-05-04T11:17:16.529Z,2.60
2019-05-04T11:19:46.953Z,2.37
2019-05-04T11:22:17.396Z,2.73
2019-05-04T11:25:07.411Z,2.83
2019-05-04T11:27:37.841Z,3.27
2019-05-04T11:30:09.537Z,2.87
2019-05-04T11:32:40.096Z,2.43
2019-05-04T11:35:12.004Z,2.23
2019-05-04T11:37:42.486Z,2.40
2019-05-04T11:40:14.182Z,3.40
2019-05-04T11:42:44.984Z,3.60
2019-05-04T11:45:15.611Z,3.30
2019-05-04T11:47:46.116Z,3.30
2019-05-04T11:50:16.681Z,3.23
2019-05-04T11:52:47.157Z,3.00
2019-05-04T11:55:17.733Z,3.70
2019-05-04T11:57:48.229Z,2.90
2019-05-04T12:00:22.222Z,2.67
2019-05-04T12:03:01.328Z,2.70
2019-05-04T12:05:55.455Z,2.60
2019-05-04T12:08:35.052Z,2.30
2019-05-04T12:11:05.920Z,2.50
2019-05-04T12:13:43.531Z,2.63
2019-05-04T12:16:08.617Z,2.83
2019-05-04T12:18:39.107Z,3.20
2019-05-04T12:21:09.599Z,2.60
2019-05-04T12:23:40.045Z,2.57
2019-05-04T12:26:10.549Z,2.70
2019-05-04T12:28:41.050Z,2.73
2019-05-04T12:31:11.743Z,2.70
2019-05-04T12:33:42.232Z,2.53
2019-05-04T12:36:14.870Z,2.77
2019-05-04T12:38:44.945Z,2.57
2019-05-04T12:41:15.413Z,2.97
2019-05-04T12:43:58.682Z,3.20
2019-05-04T12:46:18.159Z,3.30
2019-05-04T12:48:48.574Z,2.90
2019-05-04T12:51:19.092Z,2.37
2019-05-04T12:53:49.651Z,2.90
2019-05-04T12:56:20.156Z,2.43
2019-05-04T12:58:50.672Z,2.80
2019-05-04T13:01:21.071Z,2.30
2019-05-04T13:03:51.596Z,2.27
2019-05-04T13:06:22.062Z,2.47
2019-05-04T13:08:54.263Z,2.70
2019-05-04T13:11:25.165Z,2.70
2019-05-04T13:13:55.684Z,2.47
2019-05-04T13:16:26.120Z,2.87
2019-05-04T13:19:16.953Z,2.90
2019-05-04T13:21:47.409Z,2.60
2019-05-04T13:24:17.974Z,2.70
2019-05-04T13:26:48.537Z,2.67
2019-05-04T13:29:19.269Z,2.43
2019-05-04T13:31:49.787Z,2.87
2019-05-04T13:34:20.254Z,2.83
2019-05-04T13:36:50.704Z,2.70
2019-05-04T13:39:21.154Z,2.43
2019-05-04T13:41:51.637Z,2.67
2019-05-04T13:44:29.067Z,2.83
2019-05-04T13:46:54.770Z,2.70
2019-05-04T13:49:25.430Z,2.80
2019-05-04T13:51:55.904Z,2.90
2019-05-04T13:54:35.757Z,3.13
2019-05-04T13:57:19.511Z,2.63
2019-05-04T13:59:59.349Z,2.60
2019-05-04T14:02:54.882Z,2.70
2019-05-04T14:05:25.321Z,2.87
2019-05-04T14:07:55.895Z,2.30
2019-05-04T14:10:26.298Z,2.67
2019-05-04T14:12:56.762Z,2.70
2019-05-04T14:15:29.873Z,2.90
2019-05-04T14:17:59.789Z,2.80
2019-05-04T14:20:30.326Z,2.63
2019-05-04T14:23:00.907Z,3.63
2019-05-04T14:25:31.363Z,2.43
2019-05-04T14:28:01.893Z,2.27
2019-05-04T14:30:32.438Z,2.30
2019-05-04T14:33:04.910Z,1.77
2019-05-04T14:35:35.509Z,1.83
2019-05-04T14:38:09.204Z,1.80
2019-05-04T14:40:40.081Z,2.13
2019-05-04T14:43:14.512Z,1.30
2019-05-04T14:46:05.805Z,1.17
2019-05-04T14:48:41.675Z,1.77
2019-05-04T14:51:12.386Z,1.00
2019-05-04T14:53:44.164Z,1.13
2019-05-04T14:56:17.256Z,0.80
2019-05-04T14:58:48.684Z,0.83
2019-05-04T15:01:21.734Z,1.20
2019-05-04T15:03:54.204Z,1.20
2019-05-04T15:06:24.908Z,0.90
2019-05-04T15:08:57.509Z,1.20
2019-05-04T15:11:28.137Z,0.90
2019-05-04T15:13:59.796Z,1.07
2019-05-04T15:16:30.273Z,1.53
2019-05-04T15:19:25.163Z,1.20
2019-05-04T15:21:57.887Z,1.30
2019-05-04T15:24:28.438Z,1.13
2019-05-04T15:26:58.893Z,1.30
2019-05-04T15:29:29.715Z,1.07
2019-05-04T15:32:00.225Z,1.00
2019-05-04T15:34:31.747Z,1.00
2019-05-04T15:37:02.204Z,0.80
2019-05-04T15:39:34.781Z,0.90
2019-05-04T15:42:05.540Z,1.20
2019-05-04T15:44:36.156Z,1.00
2019-05-04T15:47:06.910Z,1.10
2019-05-04T15:49:37.462Z,1.10
2019-05-04T15:52:18.603Z,0.80
2019-05-04T15:55:06.848Z,1.00
2019-05-04T15:57:47.310Z,0.73
2019-05-04T16:00:22.605Z,1.00
2019-05-04T16:02:54.749Z,0.80
2019-05-04T16:05:25.772Z,0.97
2019-05-04T16:07:58.943Z,0.90
2019-05-04T16:10:30.933Z,0.87
2019-05-04T16:13:01.690Z,0.90
2019-05-04T16:15:40.360Z,0.93
2019-05-04T16:18:05.876Z,0.80
2019-05-04T16:20:37.173Z,1.23
2019-05-04T16:23:07.720Z,1.50
2019-05-04T16:25:38.400Z,1.00
2019-05-04T16:28:09.076Z,1.20
2019-05-04T16:30:39.560Z,1.00
2019-05-04T16:33:13.376Z,1.10
2019-05-04T16:35:42.749Z,0.93
2019-05-04T16:38:14.159Z,1.50
2019-05-04T16:40:46.484Z,2.47
2019-05-04T16:43:17.736Z,1.47
2019-05-04T16:45:55.720Z,1.37
2019-05-04T16:48:24.197Z,1.10
2019-05-04T16:51:14.630Z,0.90
2019-05-04T16:53:46.798Z,1.30
2019-05-04T16:56:17.352Z,0.97
2019-05-04T16:58:48.099Z,1.43
2019-05-04T17:01:37.717Z,0.70
2019-05-04T17:04:29.174Z,0.93
2019-05-04T17:06:59.822Z,0.90
2019-05-04T17:09:30.432Z,1.20
2019-05-04T17:12:00.945Z,0.90
2019-05-04T17:14:31.439Z,1.37
2019-05-04T17:17:05.168Z,0.80
2019-05-04T17:19:37.414Z,0.73
2019-05-04T17:22:09.955Z,0.67
2019-05-04T17:24:50.286Z,0.80
2019-05-04T17:27:40.079Z,0.83
2019-05-04T17:30:16.944Z,1.03
2019-05-04T17:32:47.647Z,0.90
2019-05-04T17:35:18.402Z,0.90
2019-05-04T17:37:48.989Z,0.63
2019-05-04T17:40:19.704Z,1.10
2019-05-04T17:42:58.111Z,1.20
2019-05-04T17:45:30.239Z,1.20
2019-05-04T17:48:00.929Z,1.00
2019-05-04T17:50:31.523Z,1.30
2019-05-04T17:53:02.249Z,1.30
2019-05-04T17:55:34.630Z,0.90
2019-05-04T17:58:05.332Z,0.90
2019-05-04T18:00:45.012Z,1.07
2019-05-04T18:03:24.634Z,0.93
2019-05-04T18:05:55.440Z,1.00
2019-05-04T18:08:26.224Z,0.93
2019-05-04T18:11:14.287Z,1.23
2019-05-04T18:13:56.363Z,1.10
2019-05-04T18:16:38.959Z,1.17
2019-05-04T18:19:07.313Z,1.30
2019-05-04T18:21:37.791Z,1.57
2019-05-04T18:24:08.439Z,1.40
2019-05-04T18:26:39.114Z,1.10
2019-05-04T18:29:09.800Z,1.03
2019-05-04T18:31:40.481Z,1.37
2019-05-04T18:34:11.529Z,1.30
2019-05-04T18:36:42.023Z,1.20
2019-05-04T18:41:55.919Z,1.17
2019-05-04T18:44:45.185Z,1.10
2019-05-04T18:47:34.635Z,1.10
2019-05-04T18:50:06.455Z,1.20
2019-05-04T18:52:36.945Z,1.10
2019-05-04T18:55:07.875Z,1.10
2019-05-04T18:57:38.508Z,1.33
2019-05-04T19:00:10.233Z,1.57
2019-05-04T19:02:40.786Z,2.10
2019-05-04T19:05:11.567Z,1.60
2019-05-04T19:08:01.673Z,1.80
2019-05-04T19:10:27.812Z,2.00
2019-05-04T19:12:58.593Z,1.50
2019-05-04T19:15:28.995Z,1.63
2019-05-04T19:17:59.538Z,1.13
2019-05-04T19:20:30.665Z,1.33
2019-05-04T19:23:01.526Z,1.47
2019-05-04T19:25:35.187Z,1.30
2019-05-04T19:28:05.965Z,1.83
2019-05-04T19:30:37.222Z,1.30
2019-05-04T19:33:08.116Z,1.63
2019-05-04T19:35:41.335Z,1.33
2019-05-04T19:38:12.303Z,1.70
2019-05-04T19:40:44.768Z,1.70
2019-05-04T19:43:24.532Z,1.20
2019-05-04T19:46:14.971Z,1.70
2019-05-04T19:48:53.368Z,1.93
2019-05-04T19:51:25.196Z,1.50
2019-05-04T19:53:56.031Z,1.60
2019-05-04T19:56:27.103Z,1.57
2019-05-04T19:58:58.547Z,1.90
2019-05-04T20:01:29.464Z,1.47
2019-05-04T20:04:00.607Z,2.00
2019-05-04T20:06:37.976Z,2.27
2019-05-04T20:09:28.172Z,2.20
2019-05-04T20:12:18.076Z,1.93
2019-05-04T20:15:08.588Z,2.67
2019-05-04T20:17:33.541Z,2.40
2019-05-04T20:19:54.790Z,2.37
2019-05-04T20:22:26.578Z,2.20
2019-05-04T20:24:57.469Z,2.17
2019-05-04T20:27:28.223Z,2.57
2019-05-04T20:29:58.701Z,2.47
2019-05-04T20:32:29.309Z,2.20
2019-05-04T20:34:59.756Z,2.03
2019-05-04T20:37:30.659Z,2.53
2019-05-04T20:40:01.150Z,2.37
2019-05-04T20:42:31.588Z,2.73
2019-05-04T20:45:08.048Z,3.17
2019-05-04T20:47:57.130Z,2.60
2019-05-04T20:50:27.953Z,2.70
2019-05-04T20:53:04.879Z,3.30
2019-05-04T20:55:35.453Z,2.40
2019-05-04T20:58:06.480Z,2.73
2019-05-04T21:00:37.025Z,3.23
2019-05-04T21:03:11.864Z,2.70
2019-05-04T21:05:54.417Z,2.20
2019-05-04T21:08:25.185Z,3.00
2019-05-04T21:10:55.824Z,3.30
2019-05-04T21:13:26.294Z,3.60
2019-05-04T21:15:57.023Z,2.50
2019-05-04T21:18:49.224Z,4.00
2019-05-04T21:21:26.003Z,3.90
2019-05-04T21:23:56.607Z,3.50
2019-05-04T21:26:27.109Z,2.80
2019-05-04T21:28:57.641Z,3.00
2019-05-04T21:31:28.064Z,3.27
2019-05-04T21:33:58.569Z,3.20
2019-05-04T21:36:28.978Z,2.83
2019-05-04T21:38:59.515Z,3.40
2019-05-04T21:41:29.984Z,3.50
2019-05-04T21:44:04.184Z,3.80
2019-05-04T21:46:51.039Z,3.37
2019-05-04T21:49:39.403Z,2.80
2019-05-04T21:52:10.109Z,2.80
2019-05-04T21:54:40.573Z,2.57
2019-05-04T21:57:11.008Z,2.87
2019-05-04T21:59:41.435Z,3.13
2019-05-04T22:02:21.558Z,3.23
2019-05-04T22:04:54.976Z,3.77
2019-05-04T22:07:25.835Z,2.73
2019-05-04T22:09:56.367Z,2.80
2019-05-04T22:12:26.913Z,3.27
2019-05-04T22:14:57.491Z,3.37
2019-05-04T22:17:28.004Z,3.10
2019-05-04T22:19:58.517Z,3.23
2019-05-04T22:22:28.904Z,3.40
2019-05-04T22:24:59.521Z,3.50
2019-05-04T22:27:29.972Z,4.00
2019-05-04T22:30:00.482Z,3.57
2019-05-04T22:32:30.906Z,3.83
2019-05-04T22:35:01.403Z,3.33
2019-05-04T22:37:38.704Z,4.03
2019-05-04T22:40:09.888Z,3.40
2019-05-04T22:42:40.692Z,3.60
2019-05-04T22:45:11.153Z,4.07
2019-05-04T22:47:41.860Z,3.13
2019-05-04T22:50:12.491Z,4.10
2019-05-04T22:52:49.583Z,3.87
2019-05-04T22:55:34.939Z,3.20
2019-05-04T22:58:39.494Z,2.80
2019-05-04T23:01:34.843Z,3.40
2019-05-04T23:04:12.101Z,3.47
2019-05-04T23:06:42.871Z,3.30
2019-05-04T23:09:15.170Z,3.93
2019-05-04T23:11:45.461Z,3.57
2019-05-04T23:14:15.915Z,2.80
2019-05-04T23:16:46.308Z,4.07
2019-05-04T23:19:16.770Z,3.23
2019-05-04T23:21:47.266Z,2.97
2019-05-04T23:24:17.689Z,3.10
2019-05-04T23:26:48.141Z,3.53
2019-05-04T23:29:18.542Z,3.53
2019-05-04T23:31:49.041Z,4.10
2019-05-04T23:34:19.488Z,3.50
2019-05-04T23:36:49.870Z,3.23
2019-05-04T23:39:20.329Z,3.60
2019-05-04T23:41:50.731Z,2.90
2019-05-04T23:44:21.204Z,3.50
2019-05-04T23:47:04.669Z,4.07
2019-05-04T23:49:35.526Z,3.53
2019-05-04T23:52:06.409Z,2.97
2019-05-04T23:54:36.810Z,3.37
2019-05-04T23:57:07.399Z,3.10
2019-05-04T23:59:37.857Z,3.70
